createdAt,value
2023-01-11T00:03:34.299Z,7
2023-01-11T00:09:24.612Z,7
2023-01-11T00:15:13.664Z,7
2023-01-11T00:21:04.144Z,7.1
2023-01-11T00:26:55.143Z,7.1
2023-01-11T00:32:44.895Z,7.2
2023-01-11T00:38:38.817Z,7.2
2023-01-11T00:44:31.457Z,7.2
2023-01-11T00:50:21.548Z,7.2
2023-01-11T00:56:13.089Z,7.3
2023-01-11T01:02:02.937Z,7.3
2023-01-11T01:07:53.207Z,7.3
2023-01-11T01:13:43.777Z,7.3
2023-01-11T01:19:34.327Z,7.4
2023-01-11T01:25:24.999Z,7.4
2023-01-11T01:31:15.876Z,7.5
2023-01-11T01:37:08.099Z,7.5
2023-01-11T01:42:56.811Z,7.5
2023-01-11T01:48:47.810Z,7.5
2023-01-11T01:54:39.195Z,7.6
2023-01-11T02:00:30.126Z,7.6
2023-01-11T02:06:20.883Z,7.7
2023-01-11T02:12:09.942Z,7.7
2023-01-11T02:18:01.981Z,7.8
2023-01-11T02:23:54.136Z,7.8
2023-01-11T02:29:44.990Z,7.9
2023-01-11T02:35:35.930Z,8
2023-01-11T02:41:27.367Z,8
2023-01-11T02:47:18.702Z,8.1
2023-01-11T02:53:09.338Z,8.1
2023-01-11T02:58:59.617Z,8.2
2023-01-11T03:04:50.260Z,8.2
2023-01-11T03:10:40.750Z,8.3
2023-01-11T03:16:31.517Z,8.3
2023-01-11T03:22:20.573Z,8.3
2023-01-11T03:28:11.194Z,8.4
2023-01-11T03:34:02.176Z,8.4
2023-01-11T03:39:54.139Z,8.5
2023-01-11T03:45:44.613Z,8.6
2023-01-11T03:51:35.176Z,8.6
2023-01-11T03:57:26.148Z,8.7
2023-01-11T04:03:17.080Z,8.7
2023-01-11T04:09:12.040Z,8.8
2023-01-11T04:15:01.371Z,8.9
2023-01-11T04:20:50.264Z,9
2023-01-11T04:26:41.517Z,9
2023-01-11T04:32:32.880Z,9
2023-01-11T04:38:24.845Z,9.1
2023-01-11T04:44:15.721Z,9.2
2023-01-11T04:50:07.696Z,9.2
2023-01-11T04:55:59.241Z,9.3
2023-01-11T05:01:50.277Z,9.3
2023-01-11T05:07:43.496Z,9.4
2023-01-11T05:13:34.560Z,9.4
2023-01-11T05:19:25.604Z,9.4
2023-01-11T05:25:17.627Z,9.4
2023-01-11T05:31:09.688Z,9.4
2023-01-11T05:37:02.213Z,9.5
2023-01-11T05:42:52.894Z,9.4
2023-01-11T05:48:43.799Z,9.5
2023-01-11T05:54:34.572Z,9.5
2023-01-11T06:00:25.791Z,9.6
2023-01-11T06:06:17.094Z,9.6
2023-01-11T06:12:08.115Z,9.6
2023-01-11T06:17:58.621Z,9.6
2023-01-11T06:23:49.444Z,9.6
2023-01-11T06:29:40.580Z,9.7
2023-01-11T06:35:32.249Z,9.6
2023-01-11T06:41:24.418Z,9.7
2023-01-11T06:47:15.311Z,9.7
2023-01-11T06:53:08.522Z,9.8
2023-01-11T06:58:59.644Z,9.8
2023-01-11T07:04:51.357Z,9.8
2023-01-11T07:10:42.545Z,9.9
2023-01-11T07:16:35.053Z,10
2023-01-11T07:25:53.184Z,10.1
2023-01-11T07:31:42.390Z,10.1
2023-01-11T07:38:44.374Z,10.2
2023-01-11T07:46:53.986Z,10.2
2023-01-11T07:52:43.724Z,10.3
2023-01-11T08:02:04.699Z,10.1
2023-01-11T08:07:54.512Z,10
2023-01-11T08:13:43.880Z,10
2023-01-11T08:19:33.363Z,10.1
2023-01-11T08:25:24.657Z,10.1
2023-01-11T08:31:17.797Z,10.1
2023-01-11T08:37:09.900Z,10.1
2023-01-11T08:43:03.794Z,10.1
2023-01-11T08:48:56.517Z,10.1
2023-01-11T08:54:53.200Z,10.1
2023-01-11T09:00:44.804Z,10
2023-01-11T09:06:36.452Z,10
2023-01-11T09:12:28.524Z,10
2023-01-11T09:19:30.490Z,10.1
2023-01-11T09:25:20.543Z,10.1
2023-01-11T09:31:13.006Z,10.1
2023-01-11T09:37:04.106Z,10.1
2023-01-11T09:42:55.963Z,10.1
2023-01-11T09:48:48.128Z,10.2
2023-01-11T09:54:39.304Z,10.2
2023-01-11T10:00:31.078Z,10.2
2023-01-11T10:06:23.676Z,10.2
2023-01-11T10:25:04.492Z,10.3
2023-01-11T10:30:59.400Z,10.3
2023-01-11T10:36:51.324Z,10.3
2023-01-11T10:42:44.748Z,10.2
2023-01-11T10:48:34.508Z,10.2
2023-01-11T10:54:25.897Z,10.3
2023-01-11T11:00:17.990Z,10.3
2023-01-11T11:06:12.787Z,10.4
2023-01-11T11:12:03.369Z,10.4
2023-01-11T11:17:54.574Z,10.4
2023-01-11T11:23:45.302Z,10.4
2023-01-11T11:29:37.725Z,10.3
2023-01-11T11:35:29.255Z,10.3
2023-01-11T11:41:22.203Z,10.4
2023-01-11T11:47:14.122Z,10.4
2023-01-11T11:53:05.519Z,10.5
2023-01-11T11:58:56.613Z,10.5
2023-01-11T12:04:48.746Z,10.5
2023-01-11T12:10:40.193Z,10.6
2023-01-11T12:16:30.400Z,10.5
2023-01-11T12:22:21.335Z,10.5
2023-01-11T12:28:11.785Z,10.5
2023-01-11T12:34:02.326Z,10.4
2023-01-11T12:39:53.446Z,10.4
2023-01-11T12:45:43.651Z,10.3
2023-01-11T12:51:36.328Z,10.3
2023-01-11T12:57:28.157Z,10.3
2023-01-11T13:03:19.624Z,10.2
2023-01-11T13:09:10.146Z,10.2
2023-01-11T13:15:02.971Z,10.2
2023-01-11T13:21:00.982Z,10.2
2023-01-11T13:26:58.218Z,10.2
2023-01-11T13:32:51.931Z,10.1
2023-01-11T13:38:50.389Z,10.1
2023-01-11T13:44:41.565Z,10
2023-01-11T13:50:34.541Z,10.1
2023-01-11T13:56:27.752Z,10.2
2023-01-11T14:02:17.862Z,10.3
2023-01-11T14:08:21.532Z,10.3
2023-01-11T14:14:16.435Z,10.3
2023-01-11T14:20:46.848Z,10.3
2023-01-11T14:39:05.734Z,10.4
2023-01-11T14:51:09.176Z,10.4
2023-01-11T15:09:33.437Z,10
2023-01-11T15:15:49.335Z,9.9
2023-01-11T15:21:41.582Z,9.9
2023-01-11T15:27:33.503Z,9.7
2023-01-11T15:33:24.447Z,9.6
2023-01-11T15:39:15.834Z,9.6
2023-01-11T15:45:06.728Z,9.5
2023-01-11T15:50:57.907Z,9.2
2023-01-11T15:56:48.595Z,9.2
2023-01-11T16:02:40.905Z,8.9
2023-01-11T16:08:31.878Z,9
2023-01-11T16:14:22.975Z,8.9
2023-01-11T16:20:13.600Z,8.7
2023-01-11T16:26:06.209Z,8.7
2023-01-11T16:31:57.107Z,8.5
2023-01-11T16:37:47.906Z,8.6
2023-01-11T16:43:40.093Z,8.6
2023-01-11T16:49:31.680Z,8.5
2023-01-11T16:55:23.526Z,8.3
2023-01-11T17:01:14.360Z,8.1
2023-01-11T17:07:05.545Z,7.9
2023-01-11T17:12:57.131Z,8
2023-01-11T17:18:48.372Z,7.8
2023-01-11T17:24:39.532Z,7.7
2023-01-11T17:30:30.985Z,7.4
2023-01-11T17:36:21.748Z,7.6
2023-01-11T17:42:13.876Z,7.7
2023-01-11T17:48:05.327Z,7.7
2023-01-11T17:53:56.361Z,7.6
2023-01-11T17:59:51.688Z,7.6
2023-01-11T18:05:42.943Z,7.5
2023-01-11T18:11:32.988Z,7.6
2023-01-11T18:17:23.365Z,7.7
2023-01-11T18:23:14.185Z,7.6
2023-01-11T18:29:02.760Z,7.5
2023-01-11T18:34:53.629Z,7.3
2023-01-11T18:40:44.864Z,7.5
2023-01-11T18:46:35.815Z,7.5
2023-01-11T18:52:28.171Z,7.5
2023-01-11T18:58:20.622Z,7.4
2023-01-11T19:04:12.739Z,7.5
2023-01-11T19:10:03.566Z,7.5
2023-01-11T19:15:53.727Z,7.4
2023-01-11T19:21:44.297Z,7.4
2023-01-11T19:27:35.013Z,7.5
2023-01-11T19:33:25.135Z,7.4
2023-01-11T19:39:17.347Z,7.5
2023-01-11T19:45:10.306Z,7.5
2023-01-11T19:51:01.796Z,7.5
2023-01-11T19:56:52.607Z,7.5
2023-01-11T20:02:44.888Z,7.6
2023-01-11T20:08:35.695Z,7.6
2023-01-11T20:14:26.176Z,7.7
2023-01-11T20:20:17.479Z,7.6
2023-01-11T20:26:09.363Z,7.7
2023-01-11T20:32:13.589Z,7.5
2023-01-11T20:38:27.260Z,7.6
2023-01-11T20:44:18.093Z,7.6
2023-01-11T20:50:09.325Z,7.6
2023-01-11T20:56:00.216Z,7.6
2023-01-11T21:01:51.123Z,7.8
2023-01-11T21:07:43.459Z,7.7
2023-01-11T21:13:34.782Z,7.8
2023-01-11T21:39:57.752Z,8.1
2023-01-11T21:52:54.414Z,8.3
2023-01-11T22:11:19.470Z,8.6
2023-01-11T22:17:13.113Z,8.6
2023-01-11T22:29:39.896Z,8.7
2023-01-11T22:36:01.172Z,8.7
2023-01-11T22:42:03.896Z,8.8
2023-01-11T22:48:29.715Z,8.8
2023-01-11T22:54:41.773Z,8.8
2023-01-11T23:47:04.960Z,9
